Time;durP1;ratioP1;P1;durP2;ratioP2;P2;SDS_P1;SDS_P2;PMS_P1;PMS_P2;Temp;Humidity;BMP_temperature;BMP_pressure;BME280_temperature;BME280_humidity;BME280_pressure;Samples;Min_cycle;Max_cycle;Signal;HPM_P1;HPM_P2
2023/07/07 00:00:50;;;;;;;5.10;3.60;;;;;;;14.51;72.41;97069.83;108931;1275;22527;-81
2023/07/07 00:03:38;;;;;;;5.50;3.60;;;;;;;14.58;72.47;97069.92;108929;1275;22669;-81
2023/07/07 00:06:07;;;;;;;5.50;3.70;;;;;;;14.58;72.22;97070.20;108931;1256;22547;-81
2023/07/07 00:08:35;;;;;;;6.30;3.90;;;;;;;14.51;72.20;97068.44;108972;1267;22520;-80
2023/07/07 00:11:04;;;;;;;5.20;3.50;;;;;;;14.40;72.14;97067.59;108953;1274;23109;-81
2023/07/07 00:13:33;;;;;;;6.50;3.60;;;;;;;14.37;72.32;97067.17;108958;1275;22525;-81
2023/07/07 00:16:02;;;;;;;7.30;4.00;;;;;;;14.35;72.31;97069.68;108928;1275;22757;-81
2023/07/07 00:18:31;;;;;;;7.00;3.80;;;;;;;14.31;72.36;97076.25;108944;1275;22547;-81
2023/07/07 00:21:01;;;;;;;6.00;4.80;;;;;;;14.25;72.59;97077.41;108993;1274;25438;-81
2023/07/07 00:23:30;;;;;;;8.00;4.70;;;;;;;14.30;73.24;97080.00;108929;1267;22528;-81
2023/07/07 00:26:04;;;;;;;7.50;5.50;;;;;;;14.37;73.70;97079.84;108956;1267;22546;-81
2023/07/07 00:28:32;;;;;;;8.70;5.10;;;;;;;14.47;73.79;97078.91;108912;1264;22528;-81
2023/07/07 00:31:02;;;;;;;8.30;5.00;;;;;;;14.53;73.88;97077.27;108920;1274;22555;-81
2023/07/07 00:33:31;;;;;;;10.10;5.10;;;;;;;14.59;73.86;97076.14;108962;1275;22764;-81
2023/07/07 00:35:59;;;;;;;9.00;4.90;;;;;;;14.67;73.94;97076.52;108947;1267;22547;-81
2023/07/07 00:38:28;;;;;;;7.20;5.10;;;;;;;14.69;73.70;97083.14;108933;1267;25338;-81
2023/07/07 00:41:00;;;;;;;8.10;4.40;;;;;;;14.73;73.82;97079.77;108943;1274;22595;-81
2023/07/07 00:43:29;;;;;;;6.40;4.40;;;;;;;14.78;73.72;97080.74;108955;1267;22538;-81
2023/07/07 00:45:59;;;;;;;5.70;4.40;;;;;;;14.83;73.57;97081.83;108967;1267;22524;-81
2023/07/07 00:48:31;;;;;;;7.80;5.10;;;;;;;14.88;73.40;97085.80;108851;1267;36446;-81
2023/07/07 00:51:02;;;;;;;6.90;4.40;;;;;;;14.86;73.38;97093.27;108924;1275;22521;-81
2023/07/07 00:53:32;;;;;;;7.40;4.90;;;;;;;14.85;73.33;97092.95;108923;1275;22563;-81
2023/07/07 00:56:05;;;;;;;6.50;4.90;;;;;;;14.85;73.26;97093.54;108916;1268;25373;-81
2023/07/07 00:58:40;;;;;;;5.30;3.90;;;;;;;14.85;73.37;97091.63;108952;1271;22540;-81
2023/07/07 01:01:13;;;;;;;8.00;4.10;;;;;;;14.79;73.12;97094.98;108921;1274;22530;-81
2023/07/07 01:03:46;;;;;;;7.50;4.80;;;;;;;14.78;73.34;97100.98;108924;1267;25416;-81
2023/07/07 01:06:19;;;;;;;8.40;5.20;;;;;;;14.81;73.42;97103.22;108985;1274;22542;-81
2023/07/07 01:08:57;;;;;;;8.30;5.20;;;;;;;14.84;73.37;97103.76;108982;1275;25442;-81
2023/07/07 01:11:27;;;;;;;7.90;5.20;;;;;;;14.87;73.59;97107.34;108949;1267;22539;-81
2023/07/07 01:13:57;;;;;;;8.70;5.20;;;;;;;14.88;73.64;97104.05;108945;1275;22545;-81
2023/07/07 01:16:36;;;;;;;9.20;5.00;;;;;;;14.85;73.54;97104.65;108990;1271;22729;-81
2023/07/07 01:19:21;;;;;;;10.70;4.80;;;;;;;14.88;73.76;97104.23;108955;1271;24436;-81
2023/07/07 01:22:15;;;;;;;9.40;5.90;;;;;;;14.90;73.83;97104.92;108920;1273;25425;-81
2023/07/07 01:25:01;;;;;;;9.10;4.90;;;;;;;14.94;73.89;97102.48;108961;1267;22581;-81
2023/07/07 01:28:07;;;;;;;7.30;5.20;;;;;;;14.96;73.99;97101.53;108974;1272;24183;-81
2023/07/07 01:30:42;;;;;;;7.80;5.50;;;;;;;14.97;73.97;97102.90;108850;1275;22548;-81
2023/07/07 01:33:18;;;;;;;8.20;5.40;;;;;;;14.96;74.06;97102.45;108895;1275;25247;-81
2023/07/07 01:35:46;;;;;;;8.50;5.40;;;;;;;14.91;74.07;97108.02;108887;1275;22525;-81
2023/07/07 01:38:32;;;;;;;9.90;5.50;;;;;;;14.91;74.21;97106.16;108852;1275;48079;-81
2023/07/07 01:41:09;;;;;;;7.10;5.00;;;;;;;14.90;74.02;97110.08;108941;1275;22533;-81
2023/07/07 01:43:42;;;;;;;7.90;5.10;;;;;;;14.89;73.88;97113.39;108880;1270;24215;-81
2023/07/07 01:46:19;;;;;;;6.90;4.60;;;;;;;14.84;73.54;97112.23;108895;1269;25407;-81
2023/07/07 01:48:52;;;;;;;6.30;4.20;;;;;;;14.75;73.35;97120.17;108911;1275;25497;-80
2023/07/07 01:51:27;;;;;;;6.40;4.50;;;;;;;14.72;73.25;97117.46;108856;1275;22538;-81
2023/07/07 01:53:58;;;;;;;6.40;4.50;;;;;;;14.74;73.29;97121.38;108896;1275;22594;-81
2023/07/07 01:56:31;;;;;;;8.60;4.70;;;;;;;14.69;73.05;97124.40;108914;1275;24369;-81
2023/07/07 01:59:00;;;;;;;8.10;5.00;;;;;;;14.69;73.32;97120.46;108853;1275;25338;-81
2023/07/07 02:01:30;;;;;;;7.50;4.60;;;;;;;14.71;73.48;97123.20;108923;1274;24291;-81
2023/07/07 02:03:58;;;;;;;12.10;5.60;;;;;;;14.71;73.41;97127.36;108902;1269;22545;-81
2023/07/07 02:06:26;;;;;;;7.00;4.60;;;;;;;14.65;73.49;97123.94;108880;1275;22525;-81
2023/07/07 02:08:55;;;;;;;7.50;5.20;;;;;;;14.66;73.60;97123.77;108909;1253;22577;-81
2023/07/07 02:11:24;;;;;;;6.30;4.40;;;;;;;14.65;73.43;97124.46;108899;1275;22525;-82
2023/07/07 02:13:53;;;;;;;8.60;5.00;;;;;;;14.57;73.14;97128.16;108920;1275;22669;-81
2023/07/07 02:16:21;;;;;;;6.80;5.00;;;;;;;14.50;73.33;97131.33;108884;1275;22539;-81
2023/07/07 02:18:51;;;;;;;8.60;4.90;;;;;;;14.46;73.22;97129.40;108892;1275;25356;-81
2023/07/07 02:21:20;;;;;;;7.10;4.20;;;;;;;14.41;73.17;97128.48;108928;1268;22563;-81
2023/07/07 02:23:48;;;;;;;;;;;;;;;14.39;72.96;97128.80;108911;1272;22501;-81
2023/07/07 02:26:19;;;;;;;10.30;4.90;;;;;;;14.32;73.17;97131.28;108904;1271;25431;-81
2023/07/07 02:28:48;;;;;;;11.60;5.60;;;;;;;14.34;73.61;97133.98;108894;1275;22551;-81
2023/07/07 02:31:17;;;;;;;7.60;5.50;;;;;;;14.38;74.01;97131.30;108901;1275;22546;-81
2023/07/07 02:33:45;;;;;;;8.60;5.50;;;;;;;14.42;74.13;97131.67;108867;1275;22610;-81
2023/07/07 02:36:14;;;;;;;7.70;5.60;;;;;;;14.46;74.38;97131.73;108878;1275;22529;-81
2023/07/07 02:38:42;;;;;;;8.50;5.90;;;;;;;14.48;74.49;97133.57;108905;1275;25947;-81
2023/07/07 02:41:11;;;;;;;8.50;5.60;;;;;;;14.49;74.41;97132.88;108894;1275;22524;-81
2023/07/07 02:43:40;;;;;;;8.30;5.70;;;;;;;14.48;74.50;97133.09;108917;1275;22526;-81
2023/07/07 02:46:09;;;;;;;9.40;6.10;;;;;;;14.50;74.68;97136.49;108882;1275;22577;-81
2023/07/07 02:48:37;;;;;;;9.30;5.70;;;;;;;14.51;74.63;97138.57;108861;1275;71993;-81
2023/07/07 02:51:07;;;;;;;8.00;5.80;;;;;;;14.52;74.83;97141.97;108907;1271;22577;-81
2023/07/07 02:53:37;;;;;;;7.30;5.20;;;;;;;14.53;74.94;97144.24;108884;1268;22530;-81
2023/07/07 02:56:06;;;;;;;7.40;5.10;;;;;;;14.53;74.81;97147.77;108899;1268;22524;-81
2023/07/07 02:58:35;;;;;;;8.70;5.00;;;;;;;14.52;74.91;97144.73;108900;1275;23928;-81
2023/07/07 03:01:10;;;;;;;7.80;5.60;;;;;;;14.52;74.98;97147.73;108966;1269;22542;-81
2023/07/07 03:03:40;;;;;;;9.90;5.60;;;;;;;14.53;75.09;97149.64;109079;1275;22521;-81
2023/07/07 03:06:12;;;;;;;10.30;6.20;;;;;;;14.54;75.11;97151.38;109026;1275;27585;-81
2023/07/07 03:08:41;;;;;;;10.70;5.40;;;;;;;14.54;75.28;97154.90;109037;1270;22539;-81
2023/07/07 03:11:13;;;;;;;9.10;5.90;;;;;;;14.54;75.25;97159.11;109038;1275;24247;-81
2023/07/07 03:13:42;;;;;;;8.40;5.90;;;;;;;14.52;75.37;97161.75;108965;1275;22565;-81
2023/07/07 03:16:13;;;;;;;8.20;5.70;;;;;;;14.52;75.55;97157.38;109003;1275;25340;-81
2023/07/07 03:18:42;;;;;;;10.30;5.70;;;;;;;14.52;75.61;97163.13;108993;1275;26450;-81
2023/07/07 03:21:10;;;;;;;7.60;5.50;;;;;;;14.51;75.52;97162.36;109034;1268;22508;-81
2023/07/07 03:23:39;;;;;;;8.40;6.00;;;;;;;14.53;75.59;97159.94;109009;1268;24219;-81
2023/07/07 03:26:09;;;;;;;7.70;5.00;;;;;;;14.54;75.63;97163.32;108984;1272;22532;-81
2023/07/07 03:28:38;;;;;;;7.80;5.50;;;;;;;14.47;75.44;97164.77;108906;1275;24222;-81
2023/07/07 03:31:11;;;;;;;7.70;5.10;;;;;;;14.43;75.55;97169.55;108921;1267;24295;-81
2023/07/07 03:33:42;;;;;;;8.70;5.50;;;;;;;14.39;75.50;97168.22;108918;1275;25464;-81
2023/07/07 03:36:12;;;;;;;6.30;4.30;;;;;;;14.39;75.51;97164.23;108909;1275;22525;-81
2023/07/07 03:38:43;;;;;;;9.00;6.10;;;;;;;14.40;75.76;97169.58;108862;1270;77109;-81
2023/07/07 03:41:15;;;;;;;7.90;5.00;;;;;;;14.41;75.72;97171.17;108894;1268;22941;-81
2023/07/07 03:43:45;;;;;;;10.10;5.60;;;;;;;14.44;75.88;97171.14;108932;1275;22940;-81
2023/07/07 03:46:15;;;;;;;6.80;4.90;;;;;;;14.49;75.94;97167.61;108863;1269;23120;-81
2023/07/07 03:48:45;;;;;;;8.70;6.10;;;;;;;14.52;75.99;97163.58;108903;1275;22528;-81
2023/07/07 03:51:15;;;;;;;8.50;6.00;;;;;;;14.55;76.11;97162.56;108878;1275;22517;-81
2023/07/07 03:53:47;;;;;;;9.00;5.60;;;;;;;14.57;76.22;97167.17;109024;1275;25386;-81
2023/07/07 03:56:16;;;;;;;10.60;5.60;;;;;;;14.59;76.32;97174.24;109012;1268;22694;-81
2023/07/07 03:58:45;;;;;;;9.10;5.80;;;;;;;14.62;76.41;97173.96;109060;1267;25334;-81
2023/07/07 04:01:14;;;;;;;9.40;6.00;;;;;;;14.66;76.48;97175.49;109050;1275;22538;-81
2023/07/07 04:03:42;;;;;;;;;;;;;;;14.68;76.53;97177.25;109043;1275;22501;-81
2023/07/07 04:06:11;;;;;;;7.40;5.50;;;;;;;14.71;76.66;97181.37;109037;1274;22546;-81
2023/07/07 04:08:39;;;;;;;10.50;6.10;;;;;;;14.75;76.64;97183.06;109016;1275;35638;-81
2023/07/07 04:11:10;;;;;;;9.00;5.60;;;;;;;14.80;76.66;97185.23;108958;1269;24255;-81
2023/07/07 04:13:41;;;;;;;8.90;5.60;;;;;;;14.87;76.75;97185.88;108890;1268;22608;-81
2023/07/07 04:16:11;;;;;;;8.90;6.10;;;;;;;14.92;76.70;97191.30;108906;1267;22535;-81
2023/07/07 04:18:42;;;;;;;8.50;6.30;;;;;;;14.95;76.85;97188.12;108873;1268;22544;-81
2023/07/07 04:21:16;;;;;;;8.00;5.60;;;;;;;14.97;76.95;97187.33;108916;1275;22563;-81
2023/07/07 04:23:47;;;;;;;8.00;6.40;;;;;;;15.01;76.99;97187.16;108933;1268;25269;-81
2023/07/07 04:26:18;;;;;;;11.00;6.50;;;;;;;15.05;77.13;97186.05;108909;1275;22552;-81
2023/07/07 04:28:47;;;;;;;9.30;6.00;;;;;;;15.11;77.25;97190.55;108911;1268;23072;-81
2023/07/07 04:31:16;;;;;;;9.00;5.80;;;;;;;15.16;77.07;97190.68;109056;1268;22534;-81
2023/07/07 04:33:44;;;;;;;8.60;5.60;;;;;;;15.21;77.08;97191.56;109034;1269;22551;-81
2023/07/07 04:36:13;;;;;;;6.60;5.50;;;;;;;15.26;77.12;97194.63;109045;1268;25503;-81
2023/07/07 04:38:44;;;;;;;8.40;5.40;;;;;;;15.30;77.08;97194.13;109015;1275;22566;-81
2023/07/07 04:41:16;;;;;;;8.20;5.60;;;;;;;15.35;77.14;97196.05;109012;1275;22544;-81
2023/07/07 04:43:47;;;;;;;9.60;5.90;;;;;;;15.41;77.07;97193.09;109028;1275;22552;-81
2023/07/07 04:46:17;;;;;;;7.30;5.30;;;;;;;15.47;77.09;97192.60;109022;1269;22541;-81
2023/07/07 04:48:46;;;;;;;7.90;5.80;;;;;;;15.51;76.97;97191.53;109017;1274;22566;-81
2023/07/07 04:51:15;;;;;;;6.70;5.30;;;;;;;15.55;77.14;97190.53;109045;1275;23120;-81
2023/07/07 04:53:44;;;;;;;8.60;5.60;;;;;;;15.61;77.08;97193.49;108997;1275;22534;-81
2023/07/07 04:56:15;;;;;;;9.30;6.00;;;;;;;15.68;77.03;97194.38;108959;1275;22669;-81
2023/07/07 04:58:46;;;;;;;10.30;5.40;;;;;;;15.75;77.06;97198.04;109017;1268;24614;-81
2023/07/07 05:01:16;;;;;;;7.40;5.00;;;;;;;15.87;77.04;97203.96;109013;1271;22541;-81
2023/07/07 05:03:49;;;;;;;10.10;5.60;;;;;;;15.98;76.99;97199.15;109007;1271;24264;-82
2023/07/07 05:06:18;;;;;;;6.70;5.20;;;;;;;16.10;77.06;97200.73;109037;1274;22528;-81
2023/07/07 05:08:46;;;;;;;8.20;5.40;;;;;;;16.22;77.15;97198.88;108966;1272;31741;-82
2023/07/07 05:11:17;;;;;;;7.00;5.10;;;;;;;16.37;77.18;97197.06;108983;1275;22516;-81
2023/07/07 05:13:48;;;;;;;9.30;5.40;;;;;;;16.55;77.15;97198.35;108911;1268;22529;-81
2023/07/07 05:16:19;;;;;;;8.50;5.10;;;;;;;16.73;76.84;97200.20;108947;1255;24500;-81
2023/07/07 05:18:48;;;;;;;8.70;5.40;;;;;;;16.90;76.57;97199.89;108858;1269;24194;-81
2023/07/07 05:21:18;;;;;;;7.20;5.80;;;;;;;17.16;76.64;97200.61;108916;1271;23213;-81
2023/07/07 05:23:48;;;;;;;8.10;5.30;;;;;;;18.04;78.93;97197.78;108857;1275;22560;-81
2023/07/07 05:26:16;;;;;;;6.70;5.10;;;;;;;19.69;79.09;97198.33;108932;1275;22581;-81
2023/07/07 05:28:45;;;;;;;7.80;5.10;;;;;;;21.21;76.48;97196.85;108827;1275;34619;-82
2023/07/07 05:31:14;;;;;;;9.20;5.10;;;;;;;22.38;73.87;97199.56;108892;1275;22531;-82
2023/07/07 05:33:43;;;;;;;9.00;4.70;;;;;;;23.14;70.86;97199.30;108888;1271;22528;-82
2023/07/07 05:36:12;;;;;;;6.10;4.60;;;;;;;23.41;68.13;97200.02;108911;1271;22539;-81
2023/07/07 05:38:42;;;;;;;7.50;5.30;;;;;;;23.23;66.37;97199.73;108853;1275;22560;-82
2023/07/07 05:41:11;;;;;;;10.50;5.20;;;;;;;23.01;65.21;97198.41;108891;1269;22533;-82
2023/07/07 05:43:40;;;;;;;8.10;5.20;;;;;;;22.82;64.72;97195.39;108898;1269;22616;-82
2023/07/07 05:46:12;;;;;;;6.40;4.90;;;;;;;22.85;64.39;97194.48;108882;1269;22528;-82
2023/07/07 05:48:41;;;;;;;6.10;4.70;;;;;;;22.89;63.69;97195.45;108882;1271;24437;-82
2023/07/07 05:51:19;;;;;;;6.10;5.10;;;;;;;22.97;63.47;97198.46;108904;1275;22582;-82
2023/07/07 05:53:48;;;;;;;7.50;4.70;;;;;;;23.05;62.45;97199.21;108888;1275;22568;-82
2023/07/07 05:56:19;;;;;;;7.00;4.60;;;;;;;23.15;62.34;97203.58;108933;1269;22525;-82
2023/07/07 05:58:50;;;;;;;7.70;4.70;;;;;;;23.26;61.73;97204.43;108902;1275;22532;-82
2023/07/07 06:01:18;;;;;;;10.20;4.90;;;;;;;23.34;61.31;97209.65;108873;1275;22527;-82
2023/07/07 06:03:47;;;;;;;7.70;4.90;;;;;;;23.35;60.90;97207.15;108935;1275;22606;-82
2023/07/07 06:06:16;;;;;;;6.50;4.60;;;;;;;23.47;60.61;97214.41;108913;1260;22535;-82
2023/07/07 06:08:44;;;;;;;7.10;5.10;;;;;;;23.60;60.42;97213.52;108837;1270;41128;-82
2023/07/07 06:11:13;;;;;;;7.10;5.20;;;;;;;23.77;59.93;97217.83;108934;1275;22924;-82
2023/07/07 06:13:42;;;;;;;6.50;4.60;;;;;;;24.05;59.83;97222.38;108897;1275;22548;-82
2023/07/07 06:16:11;;;;;;;7.30;4.50;;;;;;;24.29;59.27;97219.70;108894;1271;22527;-82
2023/07/07 06:18:40;;;;;;;7.30;5.00;;;;;;;24.62;59.04;97221.92;108814;1275;94828;-82
2023/07/07 06:21:12;;;;;;;8.60;4.10;;;;;;;24.90;58.39;97220.20;108911;1275;22534;-81
2023/07/07 06:23:42;;;;;;;6.40;4.50;;;;;;;25.09;57.88;97223.23;108901;1275;23025;-82
2023/07/07 06:26:13;;;;;;;6.10;4.40;;;;;;;25.33;57.41;97223.23;108911;1268;22538;-82
2023/07/07 06:28:42;;;;;;;7.90;4.60;;;;;;;25.22;56.53;97225.75;108891;1275;22530;-82
2023/07/07 06:31:13;;;;;;;6.80;5.00;;;;;;;25.02;55.78;97227.36;108899;1271;25427;-82
2023/07/07 06:33:42;;;;;;;6.90;4.40;;;;;;;24.80;55.34;97229.99;108914;1275;22546;-83
2023/07/07 06:36:11;;;;;;;6.50;4.10;;;;;;;24.78;55.23;97233.90;108923;1268;22538;-82
2023/07/07 06:38:40;;;;;;;6.70;4.90;;;;;;;25.00;55.07;97243.98;108881;1275;24002;-82
2023/07/07 06:41:11;;;;;;;6.80;4.50;;;;;;;25.25;54.75;97243.63;108868;1275;22567;-82
2023/07/07 06:43:40;;;;;;;5.90;4.10;;;;;;;25.48;54.10;97240.20;108937;1268;22870;-83
2023/07/07 06:46:11;;;;;;;6.10;4.00;;;;;;;25.87;53.96;97240.52;108895;1268;22487;-82
2023/07/07 06:48:42;;;;;;;6.10;4.10;;;;;;;25.96;52.30;97251.55;108888;1275;22518;-82
2023/07/07 06:51:10;;;;;;;5.40;4.10;;;;;;;25.80;51.79;97250.05;108896;1275;25223;-83
2023/07/07 06:53:39;;;;;;;6.20;4.10;;;;;;;25.85;51.53;97251.97;108884;1275;24283;-83
2023/07/07 06:56:09;;;;;;;6.90;4.20;;;;;;;25.91;51.77;97257.45;108916;1268;25170;-82
2023/07/07 06:58:38;;;;;;;7.50;4.20;;;;;;;26.14;51.48;97256.27;108888;1275;23301;-83
2023/07/07 07:01:07;;;;;;;8.20;4.00;;;;;;;26.36;50.88;97255.70;108896;1268;22534;-82
2023/07/07 07:03:35;;;;;;;;;;;;;;;26.21;50.11;97256.29;108900;1275;22528;-82
2023/07/07 07:06:05;;;;;;;7.10;3.90;;;;;;;26.05;50.25;97256.89;108922;1275;22765;-82
2023/07/07 07:08:33;;;;;;;4.70;3.70;;;;;;;26.07;50.74;97262.29;108880;1275;22568;-83
2023/07/07 07:11:02;;;;;;;5.30;4.20;;;;;;;26.21;50.78;97256.46;108897;1268;22538;-83
2023/07/07 07:13:31;;;;;;;8.20;4.00;;;;;;;26.17;49.55;97255.61;108896;1275;24145;-83
2023/07/07 07:15:59;;;;;;;5.00;3.40;;;;;;;25.92;49.55;97254.60;108901;1268;23988;-83
2023/07/07 07:18:28;;;;;;;6.30;3.90;;;;;;;25.90;49.37;97259.59;108888;1267;22665;-82
2023/07/07 07:20:57;;;;;;;6.00;3.30;;;;;;;25.69;48.90;97258.59;108880;1271;22524;-83
2023/07/07 07:23:26;;;;;;;7.30;3.60;;;;;;;25.42;48.28;97261.18;108886;1268;22525;-83
2023/07/07 07:25:55;;;;;;;6.90;3.40;;;;;;;25.27;48.82;97261.89;108926;1271;22668;-83
2023/07/07 07:28:23;;;;;;;7.50;3.50;;;;;;;25.35;48.62;97263.48;108848;1275;72334;-83
2023/07/07 07:30:52;;;;;;;6.20;3.70;;;;;;;25.42;48.40;97266.61;108862;1269;23302;-83
2023/07/07 07:33:22;;;;;;;5.40;3.40;;;;;;;25.44;47.99;97269.43;108875;1272;22550;-83
2023/07/07 07:35:51;;;;;;;5.40;3.20;;;;;;;25.56;48.39;97266.48;108873;1275;24370;-83
2023/07/07 07:38:22;;;;;;;4.90;3.10;;;;;;;25.77;48.27;97270.54;108892;1268;25438;-83
2023/07/07 07:40:53;;;;;;;4.90;3.00;;;;;;;25.77;46.93;97271.16;108901;1268;22554;-83
2023/07/07 07:43:22;;;;;;;5.00;2.70;;;;;;;25.75;46.87;97275.39;108860;1275;22559;-83
2023/07/07 07:45:51;;;;;;;5.70;3.40;;;;;;;25.88;46.93;97271.84;108892;1271;26484;-83
2023/07/07 07:48:19;;;;;;;6.90;2.90;;;;;;;25.97;46.79;97273.14;108874;1275;22569;-83
2023/07/07 07:50:48;;;;;;;5.70;2.90;;;;;;;26.01;46.01;97278.88;108889;1268;22559;-83
2023/07/07 07:53:18;;;;;;;5.30;3.30;;;;;;;26.00;46.01;97279.55;108864;1271;22533;-83
2023/07/07 07:55:46;;;;;;;5.40;3.90;;;;;;;25.89;45.51;97288.54;108887;1275;23009;-83
2023/07/07 07:58:15;;;;;;;5.40;3.60;;;;;;;25.78;45.87;97285.77;108918;1275;25329;-83
2023/07/07 08:00:43;;;;;;;4.30;2.90;;;;;;;25.79;45.26;97288.66;108883;1275;22769;-83
2023/07/07 08:03:12;;;;;;;8.20;3.70;;;;;;;25.71;45.47;97288.90;108905;1274;22571;-83
2023/07/07 08:05:41;;;;;;;8.30;3.40;;;;;;;25.70;44.84;97292.14;108940;1268;22531;-82
2023/07/07 08:08:10;;;;;;;5.50;3.30;;;;;;;25.72;45.14;97292.94;108958;1268;22546;-83
2023/07/07 08:10:39;;;;;;;6.20;3.30;;;;;;;26.01;45.81;97293.00;108968;1275;22492;-83
2023/07/07 08:13:08;;;;;;;7.30;2.90;;;;;;;26.29;45.43;97291.15;108993;1275;22571;-82
2023/07/07 08:15:37;;;;;;;4.90;3.40;;;;;;;26.27;44.64;97289.55;109004;1269;25246;-83
2023/07/07 08:18:05;;;;;;;4.90;3.50;;;;;;;26.21;44.78;97289.31;108982;1275;25556;-83
2023/07/07 08:20:34;;;;;;;3.90;2.80;;;;;;;26.37;45.07;97289.81;108992;1275;22537;-83
2023/07/07 08:23:02;;;;;;;3.70;2.60;;;;;;;26.64;44.35;97290.39;109021;1268;22602;-83
2023/07/07 08:25:34;;;;;;;3.60;2.20;;;;;;;26.77;43.27;97283.67;108982;1271;22524;-83
2023/07/07 08:28:03;;;;;;;3.40;2.10;;;;;;;26.89;43.20;97285.45;108956;1275;29167;-83
2023/07/07 08:30:32;;;;;;;4.00;2.70;;;;;;;27.03;42.98;97284.64;108956;1275;22528;-83
2023/07/07 08:33:01;;;;;;;3.30;2.90;;;;;;;26.76;41.86;97288.02;108957;1275;21780;-82
2023/07/07 08:35:30;;;;;;;5.90;3.00;;;;;;;26.36;41.90;97289.78;108898;1275;22529;-83
2023/07/07 08:37:58;;;;;;;;;;;;;;;26.04;41.93;97289.33;108893;1268;24421;-83
2023/07/07 08:40:35;;;;;;;4.60;2.90;;;;;;;25.70;41.72;97293.13;108880;1275;22539;-82
2023/07/07 08:43:04;;;;;;;4.80;2.80;;;;;;;25.35;42.20;97293.86;108871;1275;22545;-83
2023/07/07 08:45:33;;;;;;;3.90;3.00;;;;;;;25.15;42.01;97295.55;108873;1275;22523;-83
2023/07/07 08:48:15;;;;;;;4.20;3.00;;;;;;;24.75;42.37;97300.55;108939;1274;22556;-83
2023/07/07 08:50:52;;;;;;;4.10;2.60;;;;;;;24.66;43.08;97305.39;108906;1275;22518;-83
2023/07/07 08:53:41;;;;;;;4.90;2.70;;;;;;;24.83;43.93;97305.36;108906;1275;24324;-83
2023/07/07 08:56:19;;;;;;;4.20;2.60;;;;;;;25.00;43.90;97306.20;108890;1271;24238;-83
2023/07/07 08:59:01;;;;;;;6.00;2.80;;;;;;;25.05;43.84;97307.50;108703;1275;195039;-83
2023/07/07 09:01:44;;;;;;;4.30;2.70;;;;;;;25.15;44.41;97303.98;108892;1267;22569;-83
2023/07/07 09:04:37;;;;;;;7.50;2.90;;;;;;;25.25;43.93;97307.63;108893;1271;22665;-83
2023/07/07 09:07:35;;;;;;;6.40;2.80;;;;;;;25.21;43.97;97308.39;108884;1274;22540;-83
2023/07/07 09:10:27;;;;;;;3.20;2.60;;;;;;;25.10;43.66;97307.14;108829;1274;22570;-83
2023/07/07 09:13:01;;;;;;;5.20;2.90;;;;;;;24.95;43.55;97306.33;108866;1275;22592;-83
2023/07/07 09:15:34;;;;;;;5.00;2.70;;;;;;;24.84;44.13;97309.05;108885;1268;22563;-83
2023/07/07 09:18:13;;;;;;;5.50;3.00;;;;;;;24.93;44.55;97304.27;108891;1275;22633;-84
2023/07/07 09:20:43;;;;;;;;;;;;;;;25.00;43.96;97305.67;108931;1268;22544;-83
2023/07/07 09:23:18;;;;;;;6.30;2.50;;;;;;;24.96;43.80;97306.66;108894;1275;22531;-83
2023/07/07 09:25:56;;;;;;;3.80;2.30;;;;;;;24.92;43.35;97312.30;108914;1275;22568;-83
2023/07/07 09:28:29;;;;;;;6.50;2.40;;;;;;;24.80;42.86;97311.52;108871;1275;22586;-83
2023/07/07 09:31:09;;;;;;;5.10;2.60;;;;;;;24.78;42.75;97309.77;108875;1269;23191;-83
2023/07/07 09:33:38;;;;;;;3.40;2.50;;;;;;;24.52;42.24;97305.04;108904;1275;22514;-82
2023/07/07 09:36:16;;;;;;;6.10;2.60;;;;;;;24.46;42.66;97309.33;108876;1275;22113;-83
2023/07/07 09:38:56;;;;;;;4.00;2.50;;;;;;;24.18;42.13;97303.76;108886;1268;22989;-83
2023/07/07 09:41:37;;;;;;;5.20;2.60;;;;;;;24.07;42.35;97310.52;108873;1275;25447;-83
2023/07/07 09:44:25;;;;;;;4.30;2.30;;;;;;;24.05;42.50;97313.00;108889;1269;25096;-83
2023/07/07 09:47:05;;;;;;;3.50;2.00;;;;;;;24.20;43.74;97319.27;108918;1275;26771;-82
2023/07/07 09:49:41;;;;;;;3.10;2.10;;;;;;;24.35;42.87;97318.11;108888;1272;22688;-83
2023/07/07 09:52:27;;;;;;;3.50;2.10;;;;;;;24.44;42.95;97321.50;108916;1275;22674;-83
2023/07/07 09:54:58;;;;;;;3.80;2.30;;;;;;;24.60;42.87;97321.96;108950;1265;25377;-83
2023/07/07 09:57:34;;;;;;;3.30;1.90;;;;;;;24.68;42.65;97326.19;108909;1275;22772;-83
2023/07/07 10:00:05;;;;;;;4.10;2.00;;;;;;;24.79;42.86;97318.69;108893;1273;23357;-83
2023/07/07 10:02:37;;;;;;;4.30;2.10;;;;;;;24.87;42.02;97321.11;109002;1271;22544;-86
2023/07/07 10:05:34;;;;;;;3.70;2.00;;;;;;;24.86;41.99;97322.34;108940;1275;22550;-92
2023/07/07 10:12:06;;;;;;;2.10;1.50;;;;;;;24.83;40.49;97324.73;108960;1269;22602;-91
2023/07/07 10:38:13;;;;;;;4.70;2.90;;;;;;;24.66;40.27;97316.47;106358;1303;24264;-95
2023/07/07 10:45:27;;;;;;;3.90;2.20;;;;;;;24.91;40.98;97308.73;107697;1285;24522;-92
2023/07/07 11:04:11;;;;;;;;;;;;;;;;;;;;;
2023/07/07 11:08:24;;;;;;;4.20;2.20;;;;;;;25.01;41.44;97293.84;107739;1281;22567;-96
2023/07/07 11:12:15;;;;;;;3.60;2.40;;;;;;;24.92;41.71;97295.58;107738;1285;26493;-92
2023/07/07 11:15:00;;;;;;;2.80;2.40;;;;;;;24.97;42.08;97298.08;107917;1292;24472;-83
2023/07/07 11:18:17;;;;;;;3.50;2.30;;;;;;;24.64;41.26;97295.56;107985;1288;23169;-91
2023/07/07 11:21:37;;;;;;;5.20;2.50;;;;;;;24.36;41.67;97292.51;104106;1279;5488878;-91
2023/07/07 11:28:06;;;;;;;4.10;2.30;;;;;;;24.39;43.10;97286.54;108185;1285;24515;-93
2023/07/07 11:30:49;;;;;;;5.00;2.00;;;;;;;24.59;43.41;97284.98;108256;1274;22527;-89
2023/07/07 11:33:37;;;;;;;3.50;2.10;;;;;;;24.75;43.33;97286.20;106472;1271;2896248;-89
2023/07/07 11:36:38;;;;;;;3.60;2.60;;;;;;;24.70;42.62;97286.11;108546;1272;22559;-91
2023/07/07 11:39:26;;;;;;;4.00;2.30;;;;;;;24.58;43.08;97285.83;108727;1276;22523;-89
2023/07/07 11:42:22;;;;;;;4.20;2.40;;;;;;;24.41;42.65;97284.34;108861;1274;22666;-91
2023/07/07 11:48:46;;;;;;;3.10;2.20;;;;;;;24.12;42.86;97276.42;108770;1274;22527;-91
2023/07/07 11:51:35;;;;;;;4.30;2.40;;;;;;;24.23;42.89;97270.89;108879;1272;22570;-96
2023/07/07 11:54:38;;;;;;;3.50;2.20;;;;;;;24.23;42.92;97271.89;108994;1269;44396;-90
2023/07/07 12:01:13;;;;;;;;;;;;;;;;;;;;;
2023/07/07 12:04:11;;;;;;;3.70;2.30;;;;;;;23.97;43.44;97270.80;107538;1274;1805603;-89
2023/07/07 12:06:46;;;;;;;4.90;2.30;;;;;;;23.85;43.12;97267.46;108694;1277;22615;-88
2023/07/07 12:09:28;;;;;;;3.90;2.50;;;;;;;23.78;43.43;97265.96;108938;1269;22534;-92
2023/07/07 12:12:25;;;;;;;3.90;2.50;;;;;;;23.82;44.17;97262.77;107637;1271;5398936;-91
2023/07/07 12:15:23;;;;;;;4.40;2.20;;;;;;;24.01;44.56;97256.95;108906;1270;22532;-93
2023/07/07 12:18:22;;;;;;;4.10;2.60;;;;;;;24.01;44.39;97269.11;108651;1277;22556;-92
2023/07/07 12:21:09;;;;;;;3.90;2.40;;;;;;;23.89;43.76;97268.49;108687;1277;22646;-93
2023/07/07 12:24:10;;;;;;;5.50;2.20;;;;;;;23.80;44.71;97266.27;107041;1274;2080276;-92
2023/07/07 12:27:44;;;;;;;3.30;2.10;;;;;;;23.80;44.80;97266.48;108651;1272;22518;-93
2023/07/07 12:30:23;;;;;;;6.30;2.40;;;;;;;23.75;45.12;97267.76;108808;1274;22538;-94
2023/07/07 12:40:35;;;;;;;5.00;2.40;;;;;;;23.62;44.87;97267.20;108276;1283;22551;-90
2023/07/07 12:43:39;;;;;;;3.00;1.90;;;;;;;23.60;45.58;97267.27;108260;1260;101316;-92
2023/07/07 12:46:31;;;;;;;3.30;2.20;;;;;;;23.57;45.21;97263.09;108320;1277;22631;-89
2023/07/07 12:49:14;;;;;;;5.70;2.50;;;;;;;23.60;44.79;97261.48;108654;1271;23221;-89
2023/07/07 12:51:46;;;;;;;3.30;2.10;;;;;;;23.63;44.63;97266.59;108892;1270;22528;-89
2023/07/07 12:54:44;;;;;;;6.60;2.10;;;;;;;23.69;45.31;97265.12;107134;1277;2256584;-88
2023/07/07 12:57:30;;;;;;;5.60;2.00;;;;;;;23.75;44.64;97264.33;108852;1274;22524;-89
2023/07/07 13:00:32;;;;;;;4.90;2.00;;;;;;;23.76;44.98;97258.19;108949;1270;23272;-88
2023/07/07 13:03:31;;;;;;;4.20;2.50;;;;;;;23.90;45.84;97252.89;104603;1272;5487876;-89
2023/07/07 13:06:49;;;;;;;5.40;2.20;;;;;;;24.05;45.46;97255.58;108816;1277;22556;-90
2023/07/07 13:10:08;;;;;;;;;;;;;;;;;;;;;
2023/07/07 13:13:04;;;;;;;;;;;;;;;24.09;45.55;97259.25;104610;1277;5301590;-89